Time;durP1;ratioP1;P1;durP2;ratioP2;P2;SDS_P1;SDS_P2;PMS_P1;PMS_P2;Temp;Humidity;BMP_temperature;BMP_pressure;BME280_temperature;BME280_humidity;BME280_pressure;Samples;Min_cycle;Max_cycle;Signal;HPM_P1;HPM_P2
2022/09/10 00:02:31;;;;;;;3.20;0.70;;;;;;;16.34;90.22;100149.58;106333;1274;24329;-65
2022/09/10 00:05:02;;;;;;;4.80;0.70;;;;;;;16.32;90.05;100143.19;105651;1274;25704;-64
2022/09/10 00:07:34;;;;;;;4.00;0.80;;;;;;;16.32;90.24;100143.55;105567;1275;22721;-64
2022/09/10 00:10:06;;;;;;;2.40;0.50;;;;;;;16.32;90.05;100144.63;105743;1275;22536;-64
2022/09/10 00:12:38;;;;;;;3.70;0.50;;;;;;;16.31;90.22;100146.38;106008;1274;25416;-64
2022/09/10 00:15:13;;;;;;;2.00;0.50;;;;;;;16.27;90.22;100137.17;105616;1274;22559;-65
2022/09/10 00:17:45;;;;;;;4.40;0.50;;;;;;;16.23;90.25;100139.41;105717;1275;22549;-65
2022/09/10 00:20:16;;;;;;;1.80;0.40;;;;;;;16.21;90.34;100132.39;105658;1274;24315;-65
2022/09/10 00:22:49;;;;;;;3.20;0.40;;;;;;;16.20;90.46;100132.97;105665;1276;27563;-64
2022/09/10 00:25:21;;;;;;;2.40;0.30;;;;;;;16.17;90.35;100131.30;105695;1274;22607;-69
2022/09/10 00:27:52;;;;;;;5.40;0.50;;;;;;;16.13;90.41;100129.05;105514;1275;25380;-64
2022/09/10 00:30:25;;;;;;;2.50;0.50;;;;;;;16.11;90.60;100128.20;105554;1275;23182;-64
2022/09/10 00:32:59;;;;;;;4.80;0.30;;;;;;;16.07;90.52;100123.77;105551;1274;22724;-65
2022/09/10 00:35:34;;;;;;;4.80;0.50;;;;;;;16.03;90.59;100123.58;105701;1274;24309;-66
2022/09/10 00:38:06;;;;;;;2.40;0.50;;;;;;;16.01;90.68;100123.55;105986;1274;22574;-66
2022/09/10 00:40:39;;;;;;;6.80;0.50;;;;;;;16.00;90.59;100118.89;105524;1275;25263;-66
2022/09/10 00:43:17;;;;;;;7.20;0.40;;;;;;;16.01;90.59;100115.30;105738;1275;25437;-65
2022/09/10 00:45:53;;;;;;;5.20;0.40;;;;;;;16.00;90.61;100109.52;105581;1275;22550;-66
2022/09/10 00:48:31;;;;;;;1.80;0.30;;;;;;;15.99;90.65;100111.06;105530;1274;26649;-65
2022/09/10 00:51:05;;;;;;;2.60;0.50;;;;;;;15.96;90.73;100108.66;105605;1274;22541;-64
2022/09/10 00:53:39;;;;;;;2.60;0.30;;;;;;;15.95;90.86;100103.77;105530;1275;25338;-62
2022/09/10 00:56:11;;;;;;;3.60;0.30;;;;;;;15.95;90.87;100104.06;105613;1275;22537;-63
2022/09/10 00:58:44;;;;;;;1.70;0.30;;;;;;;15.95;90.87;100103.75;105599;1275;22555;-64
2022/09/10 01:01:18;;;;;;;1.90;0.30;;;;;;;15.95;90.96;100099.51;105630;1275;24239;-64
2022/09/10 01:03:50;;;;;;;1.30;0.20;;;;;;;15.93;90.94;100096.82;105412;1275;22614;-65
2022/09/10 01:06:24;;;;;;;2.70;0.30;;;;;;;15.92;91.17;100092.10;105583;1274;23649;-64
2022/09/10 01:08:55;;;;;;;3.40;0.40;;;;;;;15.90;91.15;100088.54;105581;1274;22541;-65
2022/09/10 01:11:46;;;;;;;2.00;0.60;;;;;;;15.89;91.26;100084.99;105793;1274;22728;-65
2022/09/10 01:14:32;;;;;;;4.00;0.60;;;;;;;15.89;91.30;100079.08;105689;1274;22537;-66
2022/09/10 01:17:12;;;;;;;1.70;0.40;;;;;;;15.89;91.23;100074.46;105455;1275;22632;-66
2022/09/10 01:20:16;;;;;;;6.50;0.50;;;;;;;15.90;91.32;100064.73;105651;1274;25247;-65
2022/09/10 01:23:10;;;;;;;1.50;0.50;;;;;;;15.91;91.37;100062.98;105465;1275;24426;-65
2022/09/10 01:25:54;;;;;;;2.50;0.40;;;;;;;15.91;91.45;100056.95;105772;1274;24271;-65
2022/09/10 01:28:37;;;;;;;2.70;0.40;;;;;;;15.90;91.40;100052.23;105539;1275;22645;-65
2022/09/10 01:31:20;;;;;;;1.80;0.40;;;;;;;15.91;91.48;100049.51;105406;1275;23912;-65
2022/09/10 01:33:57;;;;;;;3.90;0.40;;;;;;;15.93;91.33;100041.88;105544;1275;25370;-66
2022/09/10 01:36:33;;;;;;;2.30;0.30;;;;;;;15.94;91.45;100036.55;105627;1275;22566;-66
2022/09/10 01:39:05;;;;;;;1.70;0.30;;;;;;;15.94;91.36;100038.55;105686;1274;24364;-65
2022/09/10 01:41:36;;;;;;;2.90;0.30;;;;;;;15.91;91.52;100038.41;105548;1275;22632;-65
2022/09/10 01:44:26;;;;;;;3.80;0.40;;;;;;;15.90;91.55;100031.77;105714;1274;22806;-64
2022/09/10 01:47:08;;;;;;;4.20;1.00;;;;;;;15.88;91.62;100030.30;105425;1275;22565;-64
2022/09/10 01:49:48;;;;;;;2.60;0.40;;;;;;;15.88;91.60;100026.71;105351;1275;22567;-63
2022/09/10 01:52:27;;;;;;;2.20;0.40;;;;;;;15.89;91.51;100024.55;105621;1274;25377;-65
2022/09/10 01:55:10;;;;;;;3.60;0.60;;;;;;;15.87;91.43;100030.56;105543;1275;22772;-66
2022/09/10 01:57:49;;;;;;;1.50;0.40;;;;;;;15.86;91.38;100034.77;105480;1274;22699;-67
2022/09/10 02:00:21;;;;;;;3.30;0.50;;;;;;;15.84;91.68;100040.91;105535;1275;24316;-64
2022/09/10 02:02:59;;;;;;;3.10;0.40;;;;;;;15.83;91.69;100038.92;105498;1275;24477;-64
2022/09/10 02:05:34;;;;;;;3.50;0.40;;;;;;;15.80;91.71;100036.16;105632;1275;23191;-66
2022/09/10 02:08:12;;;;;;;2.10;0.30;;;;;;;15.79;91.76;100036.70;105523;1275;25270;-65
2022/09/10 02:10:54;;;;;;;3.80;0.40;;;;;;;15.79;91.85;100037.19;105504;1275;24302;-65
2022/09/10 02:13:28;;;;;;;3.80;0.80;;;;;;;15.80;91.96;100035.19;105511;1275;22607;-65
2022/09/10 02:16:01;;;;;;;1.30;0.40;;;;;;;15.79;91.92;100032.90;105584;1275;22534;-65
2022/09/10 02:18:35;;;;;;;3.70;0.40;;;;;;;15.79;91.79;100031.82;105413;1275;24341;-65
2022/09/10 02:21:07;;;;;;;2.30;0.60;;;;;;;15.80;91.95;100028.09;105453;1275;24393;-65
2022/09/10 02:23:43;;;;;;;2.80;0.40;;;;;;;15.79;91.99;100023.02;105468;1275;25474;-64
2022/09/10 02:26:15;;;;;;;4.20;0.50;;;;;;;15.78;91.99;100022.11;105497;1274;24387;-64
2022/09/10 02:28:49;;;;;;;6.40;0.80;;;;;;;15.78;92.12;100019.44;105513;1275;22548;-66
2022/09/10 02:31:24;;;;;;;3.90;0.40;;;;;;;15.77;91.96;100018.34;105471;1275;23978;-66
2022/09/10 02:33:56;;;;;;;3.70;0.50;;;;;;;15.75;92.03;100012.52;105608;1274;22634;-66
2022/09/10 02:36:28;;;;;;;4.40;0.50;;;;;;;15.75;92.16;100008.66;105756;1274;22539;-65
2022/09/10 02:39:02;;;;;;;2.10;0.50;;;;;;;15.75;92.07;100001.46;105554;1274;24398;-65
2022/09/10 02:41:40;;;;;;;5.60;0.60;;;;;;;15.75;92.16;99994.59;105514;1275;22556;-64
2022/09/10 02:44:12;;;;;;;1.70;0.30;;;;;;;15.74;92.16;99992.24;105440;1274;22553;-63
2022/09/10 02:46:43;;;;;;;4.20;0.50;;;;;;;15.72;92.29;99993.04;105501;1275;25333;-62
2022/09/10 02:49:15;;;;;;;2.40;0.50;;;;;;;15.71;92.32;99992.27;105467;1275;22633;-63
2022/09/10 02:51:47;;;;;;;2.00;0.30;;;;;;;15.68;92.34;99993.27;105488;1275;24304;-62
2022/09/10 02:54:19;;;;;;;1.90;0.50;;;;;;;15.65;92.52;99991.80;105490;1275;22501;-63
2022/09/10 02:56:52;;;;;;;2.30;0.40;;;;;;;15.64;92.75;99990.58;105509;1275;24301;-64
2022/09/10 02:59:24;;;;;;;1.50;0.40;;;;;;;15.63;92.65;99990.58;105488;1275;25448;-62
2022/09/10 03:01:55;;;;;;;2.90;0.40;;;;;;;15.62;92.77;99992.27;105527;1274;22702;-65
2022/09/10 03:04:27;;;;;;;3.30;0.50;;;;;;;15.61;92.88;99989.15;105418;1275;22589;-64
2022/09/10 03:06:58;;;;;;;2.40;0.60;;;;;;;15.61;92.90;99993.55;105464;1274;23196;-66
2022/09/10 03:09:29;;;;;;;3.90;0.60;;;;;;;15.58;92.91;99987.84;105675;1274;24889;-66
2022/09/10 03:12:01;;;;;;;4.10;0.50;;;;;;;15.57;92.92;99987.02;106213;1274;25428;-66
2022/09/10 03:14:33;;;;;;;3.10;0.40;;;;;;;15.57;92.97;99991.23;105469;1275;22725;-65
2022/09/10 03:17:05;;;;;;;2.70;0.50;;;;;;;15.56;93.07;99993.52;101640;1275;5425201;-65
2022/09/10 03:19:38;;;;;;;1.20;0.50;;;;;;;15.56;92.92;99993.46;105489;1275;22547;-65
2022/09/10 03:22:10;;;;;;;1.60;0.40;;;;;;;15.57;93.00;99996.14;105454;1275;25379;-65
2022/09/10 03:24:42;;;;;;;6.70;0.70;;;;;;;15.57;92.97;99990.55;105510;1275;25267;-65
2022/09/10 03:27:17;;;;;;;3.90;0.70;;;;;;;15.57;93.12;99989.69;105470;1275;22548;-67
2022/09/10 03:29:49;;;;;;;4.40;0.70;;;;;;;15.56;93.20;99986.88;105599;1275;22757;-65
2022/09/10 03:32:21;;;;;;;6.30;0.80;;;;;;;15.55;92.93;99986.42;105437;1275;25544;-65
2022/09/10 03:34:53;;;;;;;3.50;0.70;;;;;;;15.53;93.19;99988.68;105608;1275;22527;-65
2022/09/10 03:37:27;;;;;;;1.20;0.50;;;;;;;15.51;93.18;99984.04;105395;1275;24455;-65
2022/09/10 03:39:59;;;;;;;3.90;0.60;;;;;;;15.50;93.25;99987.35;105554;1275;24232;-66
2022/09/10 03:42:32;;;;;;;4.10;0.70;;;;;;;15.49;93.30;99990.75;105610;1275;22642;-66
2022/09/10 03:45:04;;;;;;;2.20;0.60;;;;;;;15.49;93.43;99990.95;105532;1275;22996;-66
2022/09/10 03:47:37;;;;;;;3.00;0.60;;;;;;;15.48;93.47;99991.12;105480;1275;22671;-66
2022/09/10 03:50:10;;;;;;;2.40;0.60;;;;;;;15.47;93.55;99995.48;105651;1274;22583;-66
2022/09/10 03:52:41;;;;;;;5.10;0.50;;;;;;;15.46;93.62;99995.07;105435;1275;23095;-65
2022/09/10 03:55:13;;;;;;;3.60;0.70;;;;;;;15.46;93.67;99999.31;105425;1275;22546;-66
2022/09/10 03:57:44;;;;;;;2.50;0.40;;;;;;;15.45;93.74;100000.34;105466;1275;24452;-66
2022/09/10 04:00:17;;;;;;;2.50;0.50;;;;;;;15.45;93.62;100000.18;105569;1274;25370;-66
2022/09/10 04:02:50;;;;;;;4.60;0.60;;;;;;;15.45;93.62;99994.81;105453;1275;26710;-66
2022/09/10 04:05:24;;;;;;;3.90;0.70;;;;;;;15.44;93.74;99991.27;105450;1275;22636;-66
2022/09/10 04:07:57;;;;;;;2.50;0.50;;;;;;;15.44;93.86;99983.66;105523;1275;22541;-67
2022/09/10 04:10:29;;;;;;;3.80;0.60;;;;;;;15.44;93.79;99989.34;105491;1275;22791;-65
2022/09/10 04:13:04;;;;;;;2.10;0.60;;;;;;;15.42;93.81;99986.77;105613;1275;22555;-65
2022/09/10 04:15:36;;;;;;;5.20;0.50;;;;;;;15.41;93.88;99986.20;105440;1275;22619;-66
2022/09/10 04:18:10;;;;;;;6.20;0.60;;;;;;;15.40;93.99;99982.42;105832;1274;22614;-66
2022/09/10 04:20:45;;;;;;;1.90;0.60;;;;;;;15.39;94.08;99981.35;105464;1275;22566;-66
2022/09/10 04:23:17;;;;;;;1.90;0.50;;;;;;;15.40;93.88;99973.63;105742;1274;24284;-66
2022/09/10 04:25:49;;;;;;;3.20;0.50;;;;;;;15.41;93.92;99967.84;105486;1275;22559;-66
2022/09/10 04:28:20;;;;;;;4.10;0.60;;;;;;;15.44;93.90;99966.27;105604;1274;24409;-66
2022/09/10 04:30:52;;;;;;;2.50;0.50;;;;;;;15.45;93.79;99966.27;105518;1274;24547;-65
2022/09/10 04:33:25;;;;;;;2.60;0.40;;;;;;;15.45;93.91;99964.33;105466;1274;25672;-66
2022/09/10 04:35:59;;;;;;;8.60;0.70;;;;;;;15.46;93.90;99957.88;105535;1274;25342;-65
2022/09/10 04:38:32;;;;;;;2.70;0.40;;;;;;;15.47;93.90;99957.25;105412;1275;26537;-67
2022/09/10 04:41:04;;;;;;;4.90;0.80;;;;;;;15.46;93.93;99959.45;105719;1275;23466;-66
2022/09/10 04:43:36;;;;;;;2.30;0.60;;;;;;;15.45;94.07;99957.36;105561;1275;25431;-66
2022/09/10 04:46:09;;;;;;;2.40;0.50;;;;;;;15.44;94.01;99959.67;105504;1274;22558;-65
2022/09/10 04:48:40;;;;;;;1.90;0.50;;;;;;;15.41;94.12;99957.55;105584;1274;24274;-65
2022/09/10 04:51:13;;;;;;;3.00;0.60;;;;;;;15.40;94.25;99958.53;105630;1274;24422;-66
2022/09/10 04:53:45;;;;;;;2.90;0.50;;;;;;;15.39;94.29;99962.94;105612;1275;26573;-66
2022/09/10 04:56:17;;;;;;;2.00;0.50;;;;;;;15.38;94.39;99971.48;105754;1274;22537;-65
2022/09/10 04:58:49;;;;;;;2.40;0.50;;;;;;;15.36;94.45;99978.05;105679;1275;22547;-66
2022/09/10 05:01:20;;;;;;;3.30;0.60;;;;;;;15.33;94.33;99981.33;105464;1275;24334;-67
2022/09/10 05:03:52;;;;;;;2.80;0.50;;;;;;;15.32;94.72;99981.99;105839;1275;24214;-67
2022/09/10 05:06:25;;;;;;;4.60;1.20;;;;;;;15.33;94.81;99984.55;105456;1275;25333;-66
2022/09/10 05:08:57;;;;;;;3.10;0.50;;;;;;;15.34;94.85;99983.84;105530;1275;25438;-67
2022/09/10 05:11:30;;;;;;;4.60;0.50;;;;;;;15.35;95.01;99983.67;105562;1275;22606;-66
2022/09/10 05:14:02;;;;;;;1.30;0.40;;;;;;;15.37;95.04;99979.52;105486;1275;24255;-66
2022/09/10 05:16:33;;;;;;;5.30;0.50;;;;;;;15.37;95.00;99976.81;105517;1275;25341;-66
2022/09/10 05:19:05;;;;;;;5.60;0.60;;;;;;;15.38;95.28;99978.30;105408;1275;24267;-66
2022/09/10 05:21:37;;;;;;;5.10;0.70;;;;;;;15.40;95.38;99982.58;105637;1275;24297;-66
2022/09/10 05:24:09;;;;;;;2.70;0.50;;;;;;;15.41;95.37;99984.98;105462;1275;22557;-66
2022/09/10 05:26:41;;;;;;;3.70;0.50;;;;;;;15.42;95.39;99988.70;105555;1275;22630;-66
2022/09/10 05:29:12;;;;;;;3.90;0.80;;;;;;;15.44;95.56;99987.75;105557;1274;25337;-67
2022/09/10 05:31:44;;;;;;;5.40;0.60;;;;;;;15.46;95.68;99987.80;105486;1275;24455;-67
2022/09/10 05:34:15;;;;;;;3.10;0.70;;;;;;;15.49;95.98;99987.02;105564;1275;24381;-66
2022/09/10 05:36:48;;;;;;;3.40;0.60;;;;;;;15.51;95.92;99989.86;105516;1278;24440;-66
2022/09/10 05:39:19;;;;;;;3.20;0.70;;;;;;;15.54;96.18;99988.48;105519;1275;22633;-66
2022/09/10 05:41:51;;;;;;;2.20;0.60;;;;;;;15.55;96.00;99986.38;105577;1275;22559;-67
2022/09/10 05:44:22;;;;;;;3.00;0.80;;;;;;;15.57;96.14;99985.65;105560;1275;22556;-66
2022/09/10 05:46:55;;;;;;;1.90;0.60;;;;;;;15.60;96.09;99982.30;105579;1275;22539;-66
2022/09/10 05:49:29;;;;;;;6.50;1.00;;;;;;;15.63;96.18;99976.97;105459;1275;25319;-66
2022/09/10 05:52:00;;;;;;;4.80;0.80;;;;;;;15.66;96.42;99971.68;105549;1275;22604;-66
2022/09/10 05:54:32;;;;;;;3.30;1.00;;;;;;;15.67;96.23;99975.96;105617;1275;24226;-66
2022/09/10 05:57:04;;;;;;;4.90;1.00;;;;;;;15.69;96.24;99974.48;105995;1275;25751;-67
2022/09/10 05:59:36;;;;;;;9.40;1.50;;;;;;;15.73;96.43;99968.15;105522;1275;22550;-67
2022/09/10 06:02:10;;;;;;;6.00;1.30;;;;;;;15.74;96.10;99972.70;105489;1275;23101;-67
2022/09/10 06:04:41;;;;;;;3.60;0.80;;;;;;;15.78;96.18;99977.54;105403;1275;24302;-67
2022/09/10 06:07:14;;;;;;;2.40;0.70;;;;;;;15.82;96.60;99978.73;105397;1275;24268;-68
2022/09/10 06:09:47;;;;;;;3.70;0.50;;;;;;;15.86;96.54;99980.15;105389;1275;22988;-66
2022/09/10 06:12:19;;;;;;;4.50;0.80;;;;;;;15.88;96.50;99983.00;105346;1275;22573;-66
2022/09/10 06:14:51;;;;;;;4.90;0.60;;;;;;;15.89;96.35;99991.59;107019;1275;22536;-67
2022/09/10 06:17:23;;;;;;;4.50;0.60;;;;;;;15.94;96.70;99988.89;105753;1274;24385;-66
2022/09/10 06:19:56;;;;;;;3.00;0.70;;;;;;;15.99;96.78;99985.94;105343;1275;22707;-66
2022/09/10 06:22:29;;;;;;;5.60;0.70;;;;;;;16.04;97.07;99982.32;105432;1275;25271;-66
2022/09/10 06:25:01;;;;;;;3.90;0.70;;;;;;;16.07;97.06;99980.21;106534;1275;24085;-66
2022/09/10 06:27:34;;;;;;;4.90;0.60;;;;;;;16.08;96.89;99975.69;105776;1275;22585;-67
2022/09/10 06:30:07;;;;;;;3.10;0.50;;;;;;;16.11;96.92;99968.70;105567;1275;22767;-68
2022/09/10 06:32:39;;;;;;;2.20;0.60;;;;;;;16.13;96.74;99966.64;105447;1275;22540;-67
2022/09/10 06:35:11;;;;;;;3.70;0.70;;;;;;;16.12;96.47;99967.77;105650;1275;22700;-66
2022/09/10 06:37:44;;;;;;;3.40;0.80;;;;;;;16.13;96.42;99974.93;105681;1275;22553;-66
2022/09/10 06:40:19;;;;;;;5.20;0.60;;;;;;;16.11;96.12;99976.39;105788;1275;25534;-67
2022/09/10 06:42:52;;;;;;;5.00;0.80;;;;;;;16.10;96.29;99979.41;105422;1275;25511;-66
2022/09/10 06:45:23;;;;;;;3.80;0.80;;;;;;;16.12;96.62;99979.80;105523;1275;22538;-67
2022/09/10 06:47:55;;;;;;;3.10;0.80;;;;;;;16.14;96.71;99976.10;105570;1275;24287;-66
2022/09/10 06:50:28;;;;;;;5.00;0.80;;;;;;;16.18;96.93;99976.19;105584;1275;25264;-66
2022/09/10 06:52:59;;;;;;;3.20;0.80;;;;;;;16.23;97.25;99976.03;105670;1275;22630;-67
2022/09/10 06:55:35;;;;;;;3.40;0.90;;;;;;;16.31;97.28;99974.63;105628;1275;26529;-67
2022/09/10 06:58:08;;;;;;;3.10;0.70;;;;;;;16.37;97.41;99974.95;105338;1274;22701;-66
2022/09/10 07:00:40;;;;;;;2.50;0.70;;;;;;;16.41;97.54;99976.70;105639;1275;22709;-67
2022/09/10 07:03:11;;;;;;;3.90;0.70;;;;;;;16.44;97.68;99974.61;105499;1274;22579;-66
2022/09/10 07:05:43;;;;;;;3.30;0.80;;;;;;;16.49;97.70;99976.85;105606;1275;28013;-67
2022/09/10 07:08:16;;;;;;;4.90;0.90;;;;;;;16.52;97.20;99980.33;105369;1275;22532;-67
2022/09/10 07:10:47;;;;;;;5.60;1.00;;;;;;;16.54;97.01;99976.76;109384;1275;22232;-68
2022/09/10 07:13:19;;;;;;;2.20;0.70;;;;;;;16.56;96.71;99979.52;108028;1275;22606;-67
2022/09/10 07:15:51;;;;;;;2.10;0.60;;;;;;;16.57;96.83;99981.24;105414;1275;22544;-70
2022/09/10 07:18:23;;;;;;;2.20;0.60;;;;;;;16.61;96.97;99987.48;105516;1274;22540;-68
2022/09/10 07:20:55;;;;;;;3.40;0.70;;;;;;;16.68;97.31;99982.73;105654;1275;26244;-66
2022/09/10 07:23:26;;;;;;;10.50;1.00;;;;;;;16.74;97.67;99977.17;105502;1275;22573;-67
2022/09/10 07:26:06;;;;;;;3.30;0.70;;;;;;;16.82;97.75;99977.66;105519;1274;22594;-68
2022/09/10 07:28:39;;;;;;;3.90;0.70;;;;;;;16.88;97.40;99979.48;105416;1275;22566;-67
2022/09/10 07:31:19;;;;;;;4.20;1.20;;;;;;;16.90;96.97;99984.29;105413;1275;25375;-68
2022/09/10 07:33:49;;;;;;;;;;;;;;;16.95;97.25;99986.75;105536;1275;22799;-69
2022/09/10 07:36:22;;;;;;;4.60;1.60;;;;;;;16.98;97.04;99983.09;105412;1275;25260;-66
2022/09/10 07:38:56;;;;;;;12.70;3.00;;;;;;;16.99;96.89;99984.04;105394;1275;24455;-67
2022/09/10 07:41:28;;;;;;;9.30;2.30;;;;;;;17.02;96.35;99989.04;105813;1275;26186;-66
2022/09/10 07:44:03;;;;;;;8.70;2.40;;;;;;;17.06;96.54;99989.91;105482;1275;22563;-67
2022/09/10 07:46:36;;;;;;;7.50;1.80;;;;;;;17.11;96.17;99987.34;105605;1275;23822;-69
2022/09/10 07:49:09;;;;;;;4.40;1.40;;;;;;;17.15;96.15;99990.39;105375;1275;25562;-69
2022/09/10 07:51:41;;;;;;;4.90;1.30;;;;;;;17.23;96.58;100000.27;105604;1275;22698;-66
2022/09/10 07:54:14;;;;;;;5.30;1.10;;;;;;;17.28;96.28;100003.81;104933;1275;22567;-66
2022/09/10 07:56:47;;;;;;;4.60;1.10;;;;;;;17.32;96.00;100000.33;105492;1275;22780;-66
2022/09/10 07:59:19;;;;;;;4.10;1.00;;;;;;;17.34;95.43;100004.30;105584;1275;22595;-66
2022/09/10 08:01:52;;;;;;;6.30;1.30;;;;;;;17.38;95.69;100001.78;105265;1275;24456;-66
2022/09/10 08:04:25;;;;;;;5.10;1.20;;;;;;;17.46;95.83;100003.13;105347;1275;25190;-66
2022/09/10 08:06:57;;;;;;;3.80;1.10;;;;;;;17.55;95.92;100002.27;105594;1274;22545;-66
2022/09/10 08:09:29;;;;;;;4.80;0.90;;;;;;;17.61;95.35;99997.41;105513;1275;22560;-66
2022/09/10 08:12:01;;;;;;;7.80;1.20;;;;;;;17.65;94.76;99993.92;105323;1275;23955;-66
2022/09/10 08:14:33;;;;;;;3.90;0.90;;;;;;;17.70;94.78;99996.72;105496;1275;22531;-67
2022/09/10 08:17:05;;;;;;;7.20;0.90;;;;;;;17.73;94.17;99994.48;105403;1275;22563;-67
2022/09/10 08:19:38;;;;;;;2.00;0.80;;;;;;;17.78;94.25;99992.11;105287;1275;22534;-66
2022/09/10 08:22:10;;;;;;;5.00;0.90;;;;;;;17.82;93.83;99992.81;105681;1275;22665;-67
2022/09/10 08:24:42;;;;;;;5.80;0.70;;;;;;;17.86;93.32;99987.77;105396;1275;22554;-67
2022/09/10 08:27:14;;;;;;;4.20;0.80;;;;;;;17.92;93.89;99985.85;105606;1275;22542;-67
2022/09/10 08:29:47;;;;;;;3.90;0.70;;;;;;;17.93;92.69;99988.13;105514;1275;24770;-67
2022/09/10 08:32:18;;;;;;;4.40;0.60;;;;;;;17.91;92.04;99990.66;105500;1275;22659;-67
2022/09/10 08:34:51;;;;;;;3.00;0.50;;;;;;;17.87;90.36;99986.16;105311;1275;22540;-65
2022/09/10 08:37:22;;;;;;;2.10;0.50;;;;;;;17.80;90.03;99988.82;105361;1275;22774;-65
2022/09/10 08:39:54;;;;;;;3.30;0.90;;;;;;;17.73;90.15;99989.14;105403;1275;25586;-66
2022/09/10 08:42:31;;;;;;;3.70;0.60;;;;;;;17.69;90.10;99984.21;105469;1275;25440;-66
2022/09/10 08:45:09;;;;;;;4.40;0.40;;;;;;;17.69;90.33;99983.20;105479;1275;22544;-66
2022/09/10 08:47:52;;;;;;;3.30;0.60;;;;;;;17.71;89.83;99981.16;105466;1275;23011;-67
2022/09/10 08:50:35;;;;;;;7.10;0.50;;;;;;;17.75;90.09;99982.08;105337;1275;24324;-68
2022/09/10 08:53:16;;;;;;;2.10;0.60;;;;;;;17.83;90.31;99981.50;105672;1275;22718;-67
2022/09/10 08:55:50;;;;;;;4.00;0.50;;;;;;;17.91;89.28;99977.52;105516;1275;24246;-68
2022/09/10 08:58:29;;;;;;;2.40;0.70;;;;;;;17.98;89.29;99982.16;105359;1275;22634;-67
2022/09/10 09:01:04;;;;;;;5.70;0.60;;;;;;;18.04;88.73;99987.04;105364;1275;25186;-69
2022/09/10 09:03:41;;;;;;;3.10;0.50;;;;;;;18.11;88.84;99990.59;105482;1275;25261;-68
2022/09/10 09:06:24;;;;;;;4.10;0.70;;;;;;;18.20;88.30;99983.66;105414;1275;23186;-68
2022/09/10 09:08:56;;;;;;;3.20;0.50;;;;;;;18.27;88.02;99983.95;105782;1275;22569;-67
2022/09/10 09:11:39;;;;;;;5.50;0.60;;;;;;;18.35;88.05;99986.42;105313;1275;25057;-67
2022/09/10 09:14:37;;;;;;;3.90;0.50;;;;;;;18.47;88.16;99979.33;105624;1275;25207;-67
2022/09/10 09:17:34;;;;;;;2.50;0.50;;;;;;;18.55;87.90;99974.96;105394;1276;22531;-67
2022/09/10 09:20:16;;;;;;;5.30;0.50;;;;;;;18.61;87.22;99981.45;105511;1275;22556;-67
2022/09/10 09:22:53;;;;;;;9.40;0.60;;;;;;;18.61;86.68;99982.02;105863;1275;25359;-67
2022/09/10 09:25:30;;;;;;;6.30;0.80;;;;;;;18.60;85.75;99985.89;105508;1275;22626;-67
2022/09/10 09:28:04;;;;;;;3.50;0.50;;;;;;;18.61;85.72;99979.45;105492;1275;24461;-67
2022/09/10 09:30:48;;;;;;;5.90;0.50;;;;;;;18.63;85.22;99987.95;106578;1274;23160;-68
2022/09/10 09:33:23;;;;;;;2.00;0.50;;;;;;;18.58;84.73;99987.56;105376;1275;26185;-68
2022/09/10 09:36:00;;;;;;;5.00;0.40;;;;;;;18.56;84.05;99989.71;105542;1275;24325;-69
2022/09/10 09:38:36;;;;;;;3.90;0.40;;;;;;;18.55;83.27;99991.31;105612;1275;25042;-67
2022/09/10 09:41:15;;;;;;;3.50;0.60;;;;;;;18.58;83.25;99988.27;105511;1275;22559;-69
2022/09/10 09:43:57;;;;;;;3.50;0.50;;;;;;;18.62;82.72;99991.09;105557;1275;25394;-67
2022/09/10 09:46:28;;;;;;;2.50;0.50;;;;;;;18.63;82.36;99991.18;106252;1275;22562;-68
2022/09/10 09:49:03;;;;;;;4.80;0.50;;;;;;;18.66;83.03;99987.23;105590;1275;24098;-68
2022/09/10 09:51:35;;;;;;;3.70;0.50;;;;;;;18.69;82.23;99984.79;105475;1275;24453;-68
2022/09/10 09:54:14;;;;;;;2.00;0.40;;;;;;;18.72;81.58;99984.02;105136;1274;25362;-69
2022/09/10 09:56:50;;;;;;;2.70;0.50;;;;;;;18.76;80.99;99979.58;105189;1275;22576;-68
2022/09/10 09:59:29;;;;;;;5.20;0.70;;;;;;;18.78;81.54;99978.73;105594;1275;23130;-68
2022/09/10 10:02:12;;;;;;;2.00;0.40;;;;;;;18.80;81.09;99977.05;105358;1275;25281;-68
2022/09/10 10:04:55;;;;;;;2.50;0.50;;;;;;;18.80;80.76;99977.41;105323;1275;22662;-69
2022/09/10 10:07:32;;;;;;;5.40;0.50;;;;;;;18.81;80.16;99972.20;105364;1275;22556;-67
2022/09/10 10:10:06;;;;;;;5.00;0.50;;;;;;;18.87;80.49;99969.45;105599;1274;24456;-68
2022/09/10 10:12:48;;;;;;;1.60;0.40;;;;;;;18.94;80.78;99965.97;105541;1275;22584;-68
2022/09/10 10:15:37;;;;;;;2.90;0.40;;;;;;;19.02;80.25;99959.65;105799;1275;24267;-68
2022/09/10 10:21:22;;;;;;;5.30;0.50;;;;;;;19.23;79.18;99953.61;102107;1309;546075;-69
2022/09/10 10:23:54;;;;;;;4.10;0.60;;;;;;;19.26;78.64;99943.98;104557;1287;26420;-68
2022/09/10 10:26:31;;;;;;;4.40;0.60;;;;;;;19.29;77.87;99942.35;104575;1286;26905;-69
2022/09/10 10:29:07;;;;;;;5.20;0.60;;;;;;;19.36;76.99;99943.20;105495;1276;24247;-69
2022/09/10 10:31:42;;;;;;;3.70;0.50;;;;;;;19.37;76.86;99944.14;106250;1274;25540;-69
2022/09/10 10:34:37;;;;;;;3.80;0.60;;;;;;;19.38;76.95;99942.11;102134;1273;5676340;-69
2022/09/10 10:37:18;;;;;;;4.50;0.90;;;;;;;19.38;76.94;99940.77;106496;1273;22512;-69
2022/09/10 10:40:02;;;;;;;2.70;0.40;;;;;;;19.35;76.87;99938.05;106309;1273;24434;-69
2022/09/10 10:42:40;;;;;;;1.60;0.40;;;;;;;19.35;76.42;99935.59;106200;1273;22995;-69
2022/09/10 10:45:35;;;;;;;3.90;0.50;;;;;;;19.34;76.56;99931.29;106392;1273;24344;-69
2022/09/10 10:48:18;;;;;;;4.90;0.50;;;;;;;19.35;77.14;99934.90;106548;1272;24448;-68
2022/09/10 10:50:57;;;;;;;3.80;0.60;;;;;;;19.34;76.51;99930.34;105553;1273;22576;-70
2022/09/10 10:53:49;;;;;;;2.80;0.60;;;;;;;19.36;76.87;99931.76;106373;1273;22547;-70
2022/09/10 10:56:26;;;;;;;7.70;0.70;;;;;;;19.40;76.26;99927.69;106289;1273;22580;-64
2022/09/10 10:59:19;;;;;;;2.80;0.50;;;;;;;19.41;75.47;99923.23;107041;1273;22656;-70
2022/09/10 11:01:58;;;;;;;4.20;0.60;;;;;;;19.45;76.08;99917.29;106287;1273;22619;-72
2022/09/10 11:04:39;;;;;;;6.50;0.60;;;;;;;19.52;75.56;99919.87;106146;1273;24431;-73
2022/09/10 11:07:15;;;;;;;1.70;0.50;;;;;;;19.58;75.43;99908.23;106250;1273;25588;-71
2022/09/10 11:09:53;;;;;;;1.80;0.50;;;;;;;19.66;74.89;99909.45;106201;1273;22616;-72
2022/09/10 11:12:32;;;;;;;3.40;0.40;;;;;;;19.71;74.77;99902.22;106314;1273;25330;-72
2022/09/10 11:15:13;;;;;;;2.50;0.50;;;;;;;19.72;73.64;99904.69;106228;1273;22629;-72
2022/09/10 11:17:52;;;;;;;3.70;0.60;;;;;;;19.66;73.03;99906.58;106165;1273;22546;-72
2022/09/10 11:20:31;;;;;;;5.30;0.50;;;;;;;19.65;73.40;99902.01;106146;1273;23394;-72
2022/09/10 11:23:14;;;;;;;2.00;0.40;;;;;;;19.65;73.19;99899.73;106166;1273;25337;-73
2022/09/10 11:25:59;;;;;;;4.40;0.60;;;;;;;19.66;72.99;99897.55;106138;1273;22557;-72
2022/09/10 11:28:36;;;;;;;2.80;0.50;;;;;;;19.69;73.09;99896.15;106212;1273;22752;-72
2022/09/10 11:31:16;;;;;;;7.10;0.70;;;;;;;19.72;73.18;99894.03;106153;1273;25408;-73
2022/09/10 11:33:56;;;;;;;4.70;0.70;;;;;;;19.77;73.33;99887.52;106139;1273;26508;-72
2022/09/10 11:36:33;;;;;;;2.70;0.40;;;;;;;19.85;73.44;99887.06;106211;1273;22535;-73
2022/09/10 11:39:15;;;;;;;3.30;0.60;;;;;;;19.93;73.02;99883.92;106128;1273;25615;-62
2022/09/10 11:41:52;;;;;;;5.00;0.50;;;;;;;20.02;73.55;99885.02;105590;1273;24435;-62
2022/09/10 11:44:40;;;;;;;11.60;2.40;;;;;;;20.12;72.88;99881.98;105538;1273;22569;-62
2022/09/10 11:47:18;;;;;;;5.00;0.80;;;;;;;20.15;70.85;99882.35;105730;1273;25456;-63
2022/09/10 11:49:56;;;;;;;16.10;4.90;;;;;;;20.11;70.94;99877.90;105988;1273;22563;-64
2022/09/10 11:52:32;;;;;;;6.80;1.50;;;;;;;20.15;71.16;99873.43;105705;1273;22557;-63
2022/09/10 11:55:07;;;;;;;19.10;4.30;;;;;;;20.19;70.84;99872.98;105932;1273;24238;-63
2022/09/10 11:57:49;;;;;;;7.50;0.80;;;;;;;20.19;70.49;99874.52;106207;1273;22643;-64
2022/09/10 12:00:24;;;;;;;8.00;1.20;;;;;;;20.22;69.96;99876.38;106625;1273;22537;-64
2022/09/10 12:03:27;;;;;;;5.10;1.10;;;;;;;20.27;69.97;99873.63;106074;1273;22708;-63
2022/09/10 12:06:03;;;;;;;4.20;0.60;;;;;;;20.35;69.76;99871.80;105870;1272;23106;-63